createdAt,value
2018-05-23T00:02:15.067Z,8.60
2018-05-23T00:04:42.687Z,9.27
2018-05-23T00:07:10.326Z,9.80
2018-05-23T00:09:37.939Z,9.23
2018-05-23T00:12:05.575Z,9.60
2018-05-23T00:14:33.207Z,8.97
2018-05-23T00:17:00.839Z,8.70
2018-05-23T00:19:28.454Z,11.20
2018-05-23T00:21:56.194Z,9.30
2018-05-23T00:24:23.863Z,9.63
2018-05-23T00:26:51.503Z,10.20
2018-05-23T00:29:19.123Z,11.00
2018-05-23T00:31:46.842Z,9.37
2018-05-23T00:34:14.506Z,11.63
2018-05-23T00:36:42.171Z,11.47
2018-05-23T00:39:09.787Z,10.77
2018-05-23T00:41:37.487Z,11.03
2018-05-23T00:44:05.160Z,9.37
2018-05-23T00:46:32.814Z,10.40
2018-05-23T00:49:00.481Z,9.67
2018-05-23T00:51:28.092Z,9.70
2018-05-23T00:53:55.805Z,10.47
2018-05-23T00:56:23.472Z,10.20
2018-05-23T00:58:51.135Z,9.50
2018-05-23T01:01:18.755Z,10.70
2018-05-23T01:03:46.454Z,11.20
2018-05-23T01:06:14.117Z,9.87
2018-05-23T01:08:41.759Z,11.00
2018-05-23T01:11:09.439Z,11.40
2018-05-23T01:13:37.406Z,11.20
2018-05-23T01:16:05.085Z,11.30
2018-05-23T01:18:32.838Z,11.97
2018-05-23T01:21:00.507Z,10.63
2018-05-23T01:23:28.152Z,20.83
2018-05-23T01:25:55.833Z,11.07
2018-05-23T01:28:23.477Z,10.83
2018-05-23T01:30:51.097Z,11.30
2018-05-23T01:33:18.740Z,12.33
2018-05-23T01:35:46.361Z,14.20
2018-05-23T01:38:14.004Z,12.60
2018-05-23T01:40:41.712Z,11.73
2018-05-23T01:43:09.355Z,11.10
2018-05-23T01:45:36.966Z,11.00
2018-05-23T01:48:04.607Z,10.80
2018-05-23T01:50:32.219Z,10.87
2018-05-23T01:52:59.915Z,11.33
2018-05-23T01:55:27.540Z,11.50
2018-05-23T01:57:55.240Z,11.30
2018-05-23T02:00:22.850Z,10.87
2018-05-23T02:02:50.558Z,11.60
2018-05-23T02:05:18.200Z,12.30
2018-05-23T02:07:45.824Z,11.00
2018-05-23T02:10:13.551Z,12.50
2018-05-23T02:12:41.179Z,12.20
2018-05-23T02:15:08.822Z,12.50
2018-05-23T02:17:36.430Z,12.00
2018-05-23T02:20:04.079Z,11.80
2018-05-23T02:22:31.707Z,12.37
2018-05-23T02:24:59.355Z,10.37
2018-05-23T02:27:26.983Z,10.10
2018-05-23T02:29:54.652Z,11.73
2018-05-23T02:32:22.315Z,10.23
2018-05-23T02:34:49.946Z,9.50
2018-05-23T02:37:17.637Z,9.67
2018-05-23T02:39:45.295Z,9.07
2018-05-23T02:42:12.955Z,9.10
2018-05-23T02:44:40.625Z,9.23
2018-05-23T02:47:08.309Z,8.80
2018-05-23T02:49:35.894Z,9.00
2018-05-23T02:52:03.611Z,9.60
2018-05-23T02:54:31.246Z,10.13
2018-05-23T02:56:59.082Z,11.00
2018-05-23T02:59:26.724Z,9.20
2018-05-23T03:01:54.344Z,9.43
2018-05-23T03:04:22.014Z,9.93
2018-05-23T03:06:49.632Z,10.30
2018-05-23T03:09:17.404Z,10.50
2018-05-23T03:11:45.117Z,10.07
2018-05-23T03:14:12.785Z,11.47
2018-05-23T03:16:40.434Z,11.00
2018-05-23T03:19:08.094Z,11.70
2018-05-23T03:21:35.743Z,10.33
2018-05-23T03:24:03.364Z,9.77
2018-05-23T03:26:31.089Z,9.60
2018-05-23T03:28:58.755Z,10.97
2018-05-23T03:31:26.396Z,11.07
2018-05-23T03:33:54.023Z,11.83
2018-05-23T03:36:21.667Z,11.80
2018-05-23T03:38:49.289Z,11.50
2018-05-23T03:41:16.959Z,11.90
2018-05-23T03:43:44.570Z,13.27
2018-05-23T03:46:12.206Z,11.60
2018-05-23T03:48:39.880Z,11.07
2018-05-23T03:51:07.527Z,11.37
2018-05-23T03:53:35.179Z,10.70
2018-05-23T03:56:02.824Z,11.60
2018-05-23T03:58:30.496Z,11.50
2018-05-23T04:01:10.038Z,11.83
2018-05-23T04:03:49.484Z,10.27
2018-05-23T04:09:21.355Z,10.83
2018-05-23T04:11:48.991Z,10.10
2018-05-23T04:14:16.688Z,10.17
2018-05-23T04:16:44.336Z,9.97
2018-05-23T04:19:12.008Z,10.30
2018-05-23T04:21:39.671Z,9.73
2018-05-23T04:24:07.382Z,8.80
2018-05-23T04:26:34.945Z,10.07
2018-05-23T04:29:02.595Z,10.23
2018-05-23T04:31:30.324Z,9.40
2018-05-23T04:33:57.988Z,8.50
2018-05-23T04:36:25.629Z,9.00
2018-05-23T04:38:53.284Z,9.13
2018-05-23T04:41:20.975Z,10.40
2018-05-23T04:43:48.636Z,9.33
2018-05-23T04:46:16.251Z,9.10
2018-05-23T04:48:43.902Z,10.17
2018-05-23T04:51:11.617Z,9.00
2018-05-23T04:53:39.259Z,9.00
2018-05-23T04:56:06.875Z,9.60
2018-05-23T04:58:34.617Z,9.83
2018-05-23T05:01:02.234Z,9.03
2018-05-23T05:03:29.868Z,9.50
2018-05-23T05:05:57.474Z,9.50
2018-05-23T05:08:25.163Z,9.30
2018-05-23T05:10:52.775Z,9.23
2018-05-23T05:13:20.489Z,9.73
2018-05-23T05:15:48.138Z,10.83
2018-05-23T05:18:15.775Z,9.77
2018-05-23T05:20:43.472Z,8.93
2018-05-23T05:23:11.133Z,9.23
2018-05-23T05:25:38.747Z,8.90
2018-05-23T05:28:06.449Z,8.20
2018-05-23T05:30:34.119Z,9.70
2018-05-23T05:33:01.757Z,7.67
2018-05-23T05:35:29.449Z,7.37
2018-05-23T05:37:57.244Z,8.97
2018-05-23T05:40:24.866Z,8.30
2018-05-23T05:42:52.536Z,9.87
2018-05-23T05:45:20.152Z,8.67
2018-05-23T05:47:47.808Z,8.33
2018-05-23T05:50:15.425Z,7.40
2018-05-23T05:52:43.087Z,7.77
2018-05-23T05:55:10.751Z,8.77
2018-05-23T05:57:38.398Z,6.03
2018-05-23T06:00:06.075Z,5.90
2018-05-23T06:02:33.687Z,5.90
2018-05-23T06:05:01.323Z,5.43
2018-05-23T06:07:28.955Z,5.77
2018-05-23T06:09:56.627Z,6.03
2018-05-23T06:12:24.242Z,5.00
2018-05-23T06:14:51.944Z,5.57
2018-05-23T06:17:19.559Z,4.87
2018-05-23T06:19:47.190Z,4.13
2018-05-23T06:22:14.833Z,4.60
2018-05-23T06:24:42.492Z,4.33
2018-05-23T06:27:10.104Z,4.93
2018-05-23T06:29:37.744Z,5.57
2018-05-23T06:32:05.375Z,5.07
2018-05-23T06:34:33.031Z,4.23
2018-05-23T06:37:00.662Z,4.30
2018-05-23T06:39:28.363Z,4.50
2018-05-23T06:41:56.029Z,4.30
2018-05-23T06:44:23.668Z,4.70
2018-05-23T06:46:51.279Z,4.20
2018-05-23T06:49:18.921Z,4.20
2018-05-23T06:51:46.611Z,4.70
2018-05-23T06:54:14.226Z,4.27
2018-05-23T06:56:41.900Z,5.07
2018-05-23T06:59:09.539Z,4.60
2018-05-23T07:01:37.150Z,4.47
2018-05-23T07:04:04.792Z,5.30
2018-05-23T07:06:32.427Z,4.23
2018-05-23T07:09:00.040Z,4.23
2018-05-23T07:11:27.677Z,3.80
2018-05-23T07:13:55.333Z,4.03
2018-05-23T07:16:22.985Z,4.40
2018-05-23T07:18:50.655Z,4.33
2018-05-23T07:21:18.296Z,3.70
2018-05-23T07:23:45.912Z,3.93
2018-05-23T07:26:13.551Z,4.20
2018-05-23T07:28:41.207Z,3.90
2018-05-23T07:31:08.842Z,5.10
2018-05-23T07:33:36.445Z,4.20
2018-05-23T07:36:04.078Z,3.97
2018-05-23T07:38:31.753Z,4.20
2018-05-23T07:40:59.382Z,4.30
2018-05-23T07:43:27.076Z,4.00
2018-05-23T07:45:54.771Z,4.80
2018-05-23T07:48:22.403Z,4.23
2018-05-23T07:50:50.040Z,4.77
2018-05-23T07:53:17.657Z,4.10
2018-05-23T07:55:45.382Z,4.40
2018-05-23T07:58:13.043Z,4.10
2018-05-23T08:00:40.710Z,6.20
2018-05-23T08:03:08.319Z,3.10
2018-05-23T08:05:35.956Z,2.80
2018-05-23T08:08:03.601Z,3.00
2018-05-23T08:10:31.230Z,2.90
2018-05-23T08:12:58.843Z,3.37
2018-05-23T08:15:26.490Z,3.07
2018-05-23T08:17:54.103Z,2.50
2018-05-23T08:20:21.715Z,3.60
2018-05-23T08:22:49.342Z,3.13
2018-05-23T08:25:17.031Z,2.50
2018-05-23T08:27:44.695Z,2.90
2018-05-23T08:30:12.450Z,2.50
2018-05-23T08:32:40.083Z,2.20
2018-05-23T08:35:07.778Z,2.43
2018-05-23T08:37:35.403Z,2.73
2018-05-23T08:40:03.015Z,2.30
2018-05-23T08:42:30.681Z,2.00
2018-05-23T08:44:58.294Z,2.30
2018-05-23T08:47:25.926Z,2.70
2018-05-23T08:49:53.535Z,2.47
2018-05-23T08:52:21.219Z,2.10
2018-05-23T08:54:48.883Z,2.23
2018-05-23T08:57:16.519Z,2.00
2018-05-23T08:59:44.132Z,2.30
2018-05-23T09:02:11.868Z,3.00
2018-05-23T09:04:39.506Z,2.47
2018-05-23T09:07:07.190Z,2.17
2018-05-23T09:09:34.793Z,2.70
2018-05-23T09:12:02.430Z,3.00
2018-05-23T09:14:30.045Z,2.43
2018-05-23T09:16:57.734Z,3.43
2018-05-23T09:19:25.349Z,3.07
2018-05-23T09:21:52.987Z,2.80
2018-05-23T09:24:20.604Z,3.37
2018-05-23T09:26:48.288Z,2.60
2018-05-23T09:29:15.907Z,3.20
2018-05-23T09:31:43.515Z,2.80
2018-05-23T09:34:11.175Z,2.40
2018-05-23T09:36:38.826Z,3.00
2018-05-23T09:39:06.542Z,2.20
2018-05-23T09:41:34.077Z,2.60
2018-05-23T09:44:01.823Z,2.33
2018-05-23T09:46:29.436Z,2.50
2018-05-23T09:48:57.137Z,2.20
2018-05-23T09:51:24.756Z,1.80
2018-05-23T09:53:52.471Z,2.10
2018-05-23T09:56:20.089Z,2.60
2018-05-23T09:58:47.790Z,2.37
2018-05-23T10:01:15.404Z,1.90
2018-05-23T10:03:43.051Z,1.93
2018-05-23T10:06:10.669Z,2.40
2018-05-23T10:08:38.306Z,2.30
2018-05-23T10:11:05.919Z,2.67
2018-05-23T10:13:33.571Z,1.67
2018-05-23T10:16:01.183Z,1.87
2018-05-23T10:18:28.899Z,2.27
2018-05-23T10:20:56.520Z,2.30
2018-05-23T10:23:24.150Z,2.73
2018-05-23T10:25:51.770Z,2.03
2018-05-23T10:28:19.435Z,2.30
2018-05-23T10:30:47.047Z,1.97
2018-05-23T10:33:14.746Z,1.80
2018-05-23T10:35:42.340Z,2.30
2018-05-23T10:38:09.978Z,2.30
2018-05-23T10:40:37.600Z,2.43
2018-05-23T10:43:05.322Z,2.43
2018-05-23T10:45:32.934Z,2.27
2018-05-23T10:48:00.547Z,1.87
2018-05-23T10:50:28.200Z,1.90
2018-05-23T10:52:55.855Z,2.30
2018-05-23T10:55:23.495Z,2.77
2018-05-23T10:57:51.177Z,1.70
2018-05-23T11:00:18.851Z,1.47
2018-05-23T11:02:46.586Z,1.80
2018-05-23T11:05:14.178Z,1.70
2018-05-23T11:07:41.782Z,1.97
2018-05-23T11:10:09.415Z,2.17
2018-05-23T11:12:37.036Z,2.13
2018-05-23T11:15:04.773Z,1.73
2018-05-23T11:17:32.388Z,2.30
2018-05-23T11:20:00.024Z,2.53
2018-05-23T11:22:27.701Z,2.63
2018-05-23T11:24:55.336Z,1.97
2018-05-23T11:27:23.039Z,1.90
2018-05-23T11:29:50.777Z,2.30
2018-05-23T11:32:18.315Z,1.67
2018-05-23T11:34:45.954Z,1.63
2018-05-23T11:37:13.568Z,1.53
2018-05-23T11:39:41.249Z,1.70
2018-05-23T11:42:08.854Z,1.53
2018-05-23T11:44:36.577Z,1.83
2018-05-23T11:47:04.178Z,1.40
2018-05-23T11:49:31.807Z,1.90
2018-05-23T11:51:59.445Z,1.57
2018-05-23T11:54:27.122Z,2.10
2018-05-23T11:56:54.737Z,1.40
2018-05-23T11:59:22.345Z,1.60
2018-05-23T12:01:50.208Z,2.23
2018-05-23T12:04:17.735Z,1.70
2018-05-23T12:06:45.436Z,2.27
2018-05-23T12:09:13.085Z,1.70
2018-05-23T12:11:40.732Z,2.17
2018-05-23T12:14:08.424Z,1.60
2018-05-23T12:16:36.075Z,1.20
2018-05-23T12:19:03.688Z,1.67
2018-05-23T12:21:31.408Z,1.80
2018-05-23T12:23:59.028Z,1.27
2018-05-23T12:26:26.667Z,1.40
2018-05-23T12:28:54.286Z,1.53
2018-05-23T12:31:21.919Z,2.10
2018-05-23T12:33:49.619Z,1.47
2018-05-23T12:36:17.271Z,1.60
2018-05-23T12:38:44.945Z,1.67
2018-05-23T12:41:12.607Z,1.40
2018-05-23T12:43:40.257Z,1.73
2018-05-23T12:46:07.895Z,1.70
2018-05-23T12:48:35.519Z,1.97
2018-05-23T12:51:03.156Z,1.50
2018-05-23T12:53:30.820Z,1.40
2018-05-23T12:55:58.477Z,1.83
2018-05-23T12:58:26.140Z,1.67
2018-05-23T13:00:53.807Z,1.87
2018-05-23T13:03:21.487Z,1.40
2018-05-23T13:05:49.086Z,1.83
2018-05-23T13:08:16.789Z,1.77
2018-05-23T13:10:44.435Z,1.33
2018-05-23T13:13:12.106Z,1.80
2018-05-23T13:15:39.774Z,1.73
2018-05-23T13:18:07.398Z,1.70
2018-05-23T13:20:35.109Z,1.60
2018-05-23T13:23:02.744Z,1.90
2018-05-23T13:25:30.420Z,1.70
2018-05-23T13:27:58.174Z,1.80
2018-05-23T13:30:25.718Z,1.90
2018-05-23T13:32:53.359Z,1.53
2018-05-23T13:35:20.976Z,2.07
2018-05-23T13:37:48.611Z,2.07
2018-05-23T13:40:16.228Z,2.07
2018-05-23T13:42:43.858Z,2.07
2018-05-23T13:45:11.524Z,2.10
2018-05-23T13:47:39.153Z,2.33
2018-05-23T13:50:06.769Z,1.90
2018-05-23T13:52:34.398Z,1.90
2018-05-23T13:55:02.148Z,1.90
2018-05-23T13:57:29.732Z,1.77
2018-05-23T13:59:57.352Z,2.13
2018-05-23T14:02:24.988Z,2.00
2018-05-23T14:04:52.590Z,1.33
2018-05-23T14:07:20.223Z,2.10
2018-05-23T14:09:47.860Z,2.10
2018-05-23T14:12:15.611Z,2.57
2018-05-23T14:14:43.214Z,2.20
2018-05-23T14:17:10.847Z,2.80
2018-05-23T14:19:38.461Z,1.80
2018-05-23T14:22:06.152Z,2.20
2018-05-23T14:24:33.763Z,2.17
2018-05-23T14:27:01.377Z,2.30
2018-05-23T14:29:29.016Z,2.00
2018-05-23T14:31:56.621Z,2.30
2018-05-23T14:34:24.259Z,2.20
2018-05-23T14:36:51.876Z,2.43
2018-05-23T14:39:19.516Z,2.10
2018-05-23T14:41:47.151Z,2.00
2018-05-23T14:44:14.801Z,1.90
2018-05-23T14:46:42.472Z,2.10
2018-05-23T14:49:10.225Z,2.30
2018-05-23T14:51:37.843Z,1.93
2018-05-23T14:54:05.564Z,1.70
2018-05-23T14:56:33.225Z,1.83
2018-05-23T14:59:00.875Z,2.43
2018-05-23T15:01:28.547Z,2.20
2018-05-23T15:03:56.179Z,2.10
2018-05-23T15:06:23.872Z,2.43
2018-05-23T15:08:51.536Z,1.80
2018-05-23T15:11:19.200Z,2.17
2018-05-23T15:13:46.835Z,2.33
2018-05-23T15:16:14.452Z,2.57
2018-05-23T15:18:42.079Z,1.90
2018-05-23T15:21:09.738Z,2.00
2018-05-23T15:23:37.375Z,2.23
2018-05-23T15:26:05.003Z,1.83
2018-05-23T15:28:32.645Z,2.10
2018-05-23T15:31:00.260Z,1.57
2018-05-23T15:33:27.964Z,2.20
2018-05-23T15:35:55.611Z,2.50
2018-05-23T15:38:23.377Z,1.87
2018-05-23T15:40:50.983Z,2.13
2018-05-23T15:43:18.587Z,1.70
2018-05-23T15:45:46.258Z,1.87
2018-05-23T15:48:13.876Z,2.10
2018-05-23T15:50:41.520Z,1.87
2018-05-23T15:53:09.152Z,2.10
2018-05-23T15:55:36.797Z,1.80
2018-05-23T15:58:04.402Z,2.10
2018-05-23T16:00:32.030Z,2.27
2018-05-23T16:02:59.688Z,2.30
2018-05-23T16:05:27.311Z,1.57
2018-05-23T16:07:55.018Z,2.40
2018-05-23T16:10:22.649Z,1.83
2018-05-23T16:12:50.352Z,2.23
2018-05-23T16:15:17.983Z,2.30
2018-05-23T16:17:45.590Z,2.10
2018-05-23T16:20:13.236Z,2.00
2018-05-23T16:22:40.903Z,1.70
2018-05-23T16:25:08.544Z,2.43
2018-05-23T16:27:36.168Z,2.57
2018-05-23T16:30:03.799Z,2.10
2018-05-23T16:32:31.420Z,1.97
2018-05-23T16:34:59.046Z,2.67
2018-05-23T16:37:26.762Z,2.20
2018-05-23T16:39:54.404Z,2.57
2018-05-23T16:42:22.091Z,1.90
2018-05-23T16:44:49.732Z,1.97
2018-05-23T16:47:17.347Z,2.20
2018-05-23T16:49:44.978Z,1.93
2018-05-23T16:52:12.718Z,2.20
2018-05-23T16:54:40.288Z,2.17
2018-05-23T16:57:07.928Z,2.00
2018-05-23T16:59:35.555Z,2.30
2018-05-23T17:02:03.187Z,1.80
2018-05-23T17:04:30.854Z,2.30
2018-05-23T17:06:58.516Z,1.90
2018-05-23T17:09:26.129Z,2.13
2018-05-23T17:11:53.841Z,2.10
2018-05-23T17:14:21.451Z,1.60
2018-05-23T17:16:49.083Z,2.27
2018-05-23T17:19:16.717Z,2.50
2018-05-23T17:21:44.388Z,2.50
2018-05-23T17:24:12.037Z,1.43
2018-05-23T17:26:39.700Z,2.53
2018-05-23T17:29:07.372Z,2.43
2018-05-23T17:31:35.012Z,1.40
2018-05-23T17:34:02.615Z,2.53
2018-05-23T17:36:30.252Z,2.17
2018-05-23T17:38:57.922Z,1.90
2018-05-23T17:41:25.563Z,1.90
2018-05-23T17:43:53.176Z,1.77
2018-05-23T17:46:20.907Z,2.50
2018-05-23T17:48:48.522Z,2.17
2018-05-23T17:51:16.155Z,2.60
2018-05-23T17:53:43.786Z,3.03
2018-05-23T17:56:11.456Z,2.60
2018-05-23T17:58:39.120Z,2.10
2018-05-23T18:01:06.764Z,2.93
2018-05-23T18:03:34.375Z,2.90
2018-05-23T18:06:02.239Z,2.70
2018-05-23T18:08:29.757Z,3.13
2018-05-23T18:10:57.370Z,3.53
2018-05-23T18:13:25.004Z,3.00
2018-05-23T18:15:52.609Z,2.77
2018-05-23T18:18:20.308Z,2.73
2018-05-23T18:20:47.975Z,2.63
2018-05-23T18:23:15.639Z,2.37
2018-05-23T18:25:43.255Z,3.23
2018-05-23T18:28:10.975Z,2.93
2018-05-23T18:30:38.533Z,2.83
2018-05-23T18:33:06.196Z,2.60
2018-05-23T18:35:33.842Z,2.73
2018-05-23T18:38:01.473Z,2.70
2018-05-23T18:40:29.087Z,2.70
2018-05-23T18:42:56.732Z,2.83
2018-05-23T18:45:24.347Z,3.00
2018-05-23T18:47:52.050Z,3.13
2018-05-23T18:50:19.724Z,3.00
2018-05-23T18:52:47.360Z,2.90
2018-05-23T18:55:14.979Z,3.00
2018-05-23T18:57:42.623Z,3.00
2018-05-23T19:00:10.237Z,2.70
2018-05-23T19:02:38.011Z,3.03
2018-05-23T19:05:06.081Z,3.03
2018-05-23T19:07:33.710Z,3.50
2018-05-23T19:10:01.437Z,2.73
2018-05-23T19:12:29.071Z,2.70
2018-05-23T19:14:57.070Z,4.20
2018-05-23T19:17:24.723Z,2.83
2018-05-23T19:19:52.603Z,3.17
2018-05-23T19:22:20.090Z,3.07
2018-05-23T19:24:47.723Z,3.20
2018-05-23T19:27:15.343Z,3.13
2018-05-23T19:29:43.040Z,3.10
2018-05-23T19:32:10.700Z,2.70
2018-05-23T19:34:38.326Z,3.17
2018-05-23T19:37:05.946Z,3.20
2018-05-23T19:39:33.578Z,3.10
2018-05-23T19:42:01.188Z,3.27
2018-05-23T19:44:28.822Z,3.33
2018-05-23T19:46:56.470Z,2.73
2018-05-23T19:49:24.109Z,2.87
2018-05-23T19:51:51.786Z,3.00
2018-05-23T19:54:19.418Z,3.43
2018-05-23T19:56:47.124Z,3.10
2018-05-23T19:59:14.780Z,3.10
2018-05-23T20:01:42.408Z,3.20
2018-05-23T20:04:10.059Z,3.27
2018-05-23T20:06:37.675Z,3.73
2018-05-23T20:09:06.037Z,3.07
2018-05-23T20:11:33.717Z,3.13
2018-05-23T20:14:01.418Z,3.53
2018-05-23T20:16:29.140Z,3.70
2018-05-23T20:18:56.776Z,4.10
2018-05-23T20:21:24.382Z,3.60
2018-05-23T20:23:52.112Z,3.07
2018-05-23T20:26:19.743Z,3.80
2018-05-23T20:28:47.398Z,3.67
2018-05-23T20:31:15.009Z,4.20
2018-05-23T20:33:42.624Z,3.93
2018-05-23T20:36:10.344Z,3.60
2018-05-23T20:38:38.090Z,3.70
2018-05-23T20:41:05.764Z,3.33
2018-05-23T20:43:33.377Z,3.80
2018-05-23T20:46:01.090Z,3.73
2018-05-23T20:48:28.706Z,4.10
2018-05-23T20:50:56.363Z,3.50
2018-05-23T20:53:23.979Z,3.60
2018-05-23T20:55:51.620Z,3.90
2018-05-23T20:58:19.299Z,3.97
2018-05-23T21:00:47.059Z,3.83
2018-05-23T21:03:14.661Z,3.63
2018-05-23T21:05:42.384Z,3.87
2018-05-23T21:08:10.049Z,3.67
2018-05-23T21:10:37.713Z,3.70
2018-05-23T21:13:05.340Z,4.00
2018-05-23T21:15:32.975Z,3.77
2018-05-23T21:18:00.591Z,3.73
2018-05-23T21:20:28.247Z,4.20
2018-05-23T21:22:55.857Z,3.57
2018-05-23T21:25:23.495Z,3.93
2018-05-23T21:27:51.196Z,4.00
2018-05-23T21:30:18.907Z,3.70
2018-05-23T21:32:46.571Z,3.90
2018-05-23T21:35:14.207Z,4.13
2018-05-23T21:37:41.823Z,4.13
2018-05-23T21:40:09.555Z,3.90
2018-05-23T21:42:37.172Z,4.50
2018-05-23T21:45:04.788Z,4.67
2018-05-23T21:47:32.425Z,3.03
2018-05-23T21:50:00.103Z,4.57
2018-05-23T21:52:27.767Z,3.40
2018-05-23T21:54:55.370Z,3.87
2018-05-23T21:57:23.082Z,4.20
2018-05-23T21:59:50.755Z,3.87
2018-05-23T22:02:18.397Z,3.60
2018-05-23T22:04:46.084Z,3.70
2018-05-23T22:07:13.720Z,4.00
2018-05-23T22:09:41.336Z,4.50
2018-05-23T22:12:09.068Z,4.23
2018-05-23T22:14:36.732Z,4.43
2018-05-23T22:17:04.803Z,4.33
2018-05-23T22:19:32.442Z,4.60
2018-05-23T22:22:00.120Z,4.63
2018-05-23T22:24:27.766Z,4.43
2018-05-23T22:26:55.405Z,4.77
2018-05-23T22:29:23.015Z,4.30
2018-05-23T22:31:50.645Z,4.27
2018-05-23T22:34:18.339Z,4.80
2018-05-23T22:36:45.987Z,4.70
2018-05-23T22:39:13.598Z,4.37
2018-05-23T22:41:41.239Z,4.20
2018-05-23T22:44:08.984Z,4.83
2018-05-23T22:46:36.647Z,5.40
2018-05-23T22:49:04.273Z,4.90
2018-05-23T22:51:31.888Z,4.27
2018-05-23T22:53:59.528Z,4.77
2018-05-23T22:56:27.196Z,4.60
2018-05-23T22:58:54.835Z,4.80
2018-05-23T23:01:22.452Z,5.60
2018-05-23T23:03:50.174Z,4.67
2018-05-23T23:06:17.791Z,4.60
2018-05-23T23:08:45.427Z,4.73
2018-05-23T23:11:13.066Z,5.30
2018-05-23T23:13:40.699Z,4.03
2018-05-23T23:16:08.318Z,5.27
2018-05-23T23:18:35.952Z,5.20
2018-05-23T23:21:03.619Z,5.50
2018-05-23T23:23:31.279Z,5.20
2018-05-23T23:25:58.899Z,4.97
2018-05-23T23:28:26.612Z,5.00
2018-05-23T23:30:54.262Z,4.77
2018-05-23T23:33:21.932Z,4.60
2018-05-23T23:35:49.538Z,5.00
2018-05-23T23:38:17.158Z,4.40
2018-05-23T23:40:44.815Z,4.17
2018-05-23T23:43:12.468Z,4.60
2018-05-23T23:45:40.091Z,5.00
2018-05-23T23:48:07.790Z,4.40
2018-05-23T23:50:35.463Z,5.70
2018-05-23T23:53:03.075Z,4.70
2018-05-23T23:55:30.755Z,5.40
2018-05-23T23:57:58.367Z,4.90
